Time;durP1;ratioP1;P1;durP2;ratioP2;P2;SDS_P1;SDS_P2;PMS_P1;PMS_P2;Temp;Humidity;BMP_temperature;BMP_pressure;BME280_temperature;BME280_humidity;BME280_pressure;Samples;Min_cycle;Max_cycle;Signal;HPM_P1;HPM_P2
2023/07/02 00:01:30;;;;;;;;;;;;;;;17.55;100.00;100705.25;5069861;28;20259;-36
2023/07/02 00:03:55;;;;;;;10.50;5.90;;;;;;;17.43;100.00;100698.19;5068817;28;19913;-36
2023/07/02 00:06:20;;;;;;;;;;;;;;;17.53;100.00;100699.25;5069214;28;20259;-36
2023/07/02 00:08:46;;;;;;;10.50;6.00;;;;;;;17.46;100.00;100694.06;5068755;28;20379;-36
2023/07/02 00:11:12;;;;;;;;;;;;;;;17.50;100.00;100701.41;5059969;28;20282;-36
2023/07/02 00:13:38;;;;;;;9.52;5.88;;;;;;;17.34;100.00;100678.00;5055178;28;20376;-36
2023/07/02 00:16:04;;;;;;;8.65;5.95;;;;;;;17.35;100.00;100696.03;5055661;28;20099;-36
2023/07/02 00:18:33;;;;;;;12.48;6.13;;;;;;;17.28;100.00;100686.50;5055334;28;20025;-36
2023/07/02 00:21:01;;;;;;;10.23;5.97;;;;;;;17.31;100.00;100677.72;5055425;28;20017;-36
2023/07/02 00:23:26;;;;;;;10.70;6.25;;;;;;;17.26;100.00;100653.97;5055311;28;20028;-36
2023/07/02 00:25:51;;;;;;;14.15;7.18;;;;;;;17.17;100.00;100640.06;5055497;28;20428;-36
2023/07/02 00:28:17;;;;;;;;;;;;;;;17.25;100.00;100655.09;5055451;28;20439;-36
2023/07/02 00:30:43;;;;;;;16.35;7.28;;;;;;;17.14;100.00;100676.16;5055679;28;19955;-36
2023/07/02 00:33:08;;;;;;;10.55;6.50;;;;;;;17.10;100.00;100685.19;5055610;28;20369;-36
2023/07/02 00:35:33;;;;;;;;;;;;;;;17.18;100.00;100690.91;5055339;28;20109;-36
2023/07/02 00:37:58;;;;;;;13.68;6.68;;;;;;;17.11;100.00;100700.50;5055042;28;20324;-36
2023/07/02 00:40:24;;;;;;;;;;;;;;;17.15;100.00;100701.56;5055398;28;20076;-36
2023/07/02 00:42:49;;;;;;;11.10;7.20;;;;;;;16.94;100.00;100682.50;5054637;28;19912;-37
2023/07/02 00:45:14;;;;;;;;;;;;;;;17.10;100.00;100696.94;5055150;28;20260;-36
2023/07/02 00:47:40;;;;;;;12.90;7.13;;;;;;;16.99;100.00;100701.63;5055410;28;19927;-37
2023/07/02 00:50:05;;;;;;;;;;;;;;;17.08;100.00;100712.81;5055557;28;20453;-36
2023/07/02 00:52:31;;;;;;;12.73;7.13;;;;;;;16.96;100.00;100704.91;5055287;28;19924;-37
2023/07/02 00:54:56;;;;;;;;;;;;;;;17.11;100.00;100705.94;5054966;28;20025;-36
2023/07/02 00:57:21;;;;;;;13.97;7.87;;;;;;;17.05;100.00;100707.06;5054824;28;19935;-36
2023/07/02 00:59:46;;;;;;;;;;;;;;;17.12;100.00;100713.84;5055334;28;20302;-36
2023/07/02 01:02:12;;;;;;;12.73;7.60;;;;;;;17.07;100.00;100713.06;5054590;28;19920;-36
2023/07/02 01:04:38;;;;;;;;;;;;;;;17.13;100.00;100714.69;5054923;28;20461;-36
2023/07/02 01:07:08;;;;;;;12.70;7.85;;;;;;;17.04;100.00;100711.72;5055036;28;19912;-36
2023/07/02 01:09:34;;;;;;;16.52;8.80;;;;;;;17.07;100.00;100713.06;5054905;28;20033;-37
2023/07/02 01:12:03;;;;;;;13.32;8.25;;;;;;;17.00;100.00;100718.81;5054680;28;20067;-37
2023/07/02 01:14:33;;;;;;;14.00;8.43;;;;;;;16.98;100.00;100716.38;5054644;28;20025;-37
2023/07/02 01:17:03;;;;;;;14.57;9.10;;;;;;;16.92;100.00;100703.00;5054906;28;20029;-37
2023/07/02 01:19:58;;;;;;;14.27;8.63;;;;;;;16.99;100.00;100725.38;5054216;28;20032;-37
2023/07/02 01:22:26;;;;;;;15.90;9.20;;;;;;;16.97;100.00;100722.09;5053505;28;20032;-37
2023/07/02 01:24:52;;;;;;;17.63;9.10;;;;;;;16.96;100.00;100715.00;5054464;28;20032;-37
2023/07/02 01:27:18;;;;;;;15.80;9.48;;;;;;;16.93;100.00;100721.84;5054292;28;20427;-37
2023/07/02 01:29:46;;;;;;;20.40;9.75;;;;;;;16.90;100.00;100721.56;5054373;28;20032;-37
2023/07/02 01:32:13;;;;;;;15.98;9.70;;;;;;;16.81;100.00;100715.84;5054244;28;20060;-37
2023/07/02 01:34:39;;;;;;;16.70;9.73;;;;;;;16.85;100.00;100724.31;5053978;28;20028;-37
2023/07/02 01:37:05;;;;;;;16.67;9.40;;;;;;;16.81;100.00;100725.97;5053897;28;20029;-37
2023/07/02 01:39:31;;;;;;;15.65;10.20;;;;;;;16.79;100.00;100725.41;5053794;28;20083;-37
2023/07/02 01:42:07;;;;;;;17.10;10.80;;;;;;;16.81;100.00;100734.97;5054048;28;20052;-37
2023/07/02 01:44:32;;;;;;;18.27;10.65;;;;;;;16.82;100.00;100741.25;5053345;28;20031;-37
2023/07/02 01:46:58;;;;;;;;;;;;;;;16.87;100.00;100728.41;5054486;28;20100;-37
2023/07/02 01:49:24;;;;;;;18.80;11.02;;;;;;;16.77;100.00;100738.53;5053901;28;19916;-37
2023/07/02 01:51:53;;;;;;;;;;;;;;;16.84;100.00;100739.88;5054292;28;20032;-37
2023/07/02 01:54:19;;;;;;;22.73;11.05;;;;;;;16.75;100.00;100736.06;5053667;28;19909;-37
2023/07/02 01:56:45;;;;;;;17.40;10.65;;;;;;;16.70;100.00;100730.59;5053906;28;20519;-37
2023/07/02 01:59:11;;;;;;;;;;;;;;;16.80;100.00;100733.34;5054084;28;20045;-37
2023/07/02 02:01:40;;;;;;;18.13;10.63;;;;;;;16.73;100.00;100739.06;5053601;28;20402;-37
2023/07/02 02:04:06;;;;;;;17.50;10.65;;;;;;;16.64;100.00;100728.94;5053795;28;20055;-37
2023/07/02 02:06:31;;;;;;;;;;;;;;;16.78;100.00;100745.63;5054035;28;20422;-37
2023/07/02 02:08:57;;;;;;;15.60;9.73;;;;;;;16.69;100.00;100740.69;5053363;28;20262;-37
2023/07/02 02:11:22;;;;;;;;;;;;;;;16.77;100.00;100738.53;5053714;28;20275;-37
2023/07/02 02:13:48;;;;;;;17.55;10.80;;;;;;;16.70;100.00;100738.78;5053717;28;19935;-37
2023/07/02 02:16:14;;;;;;;18.08;10.82;;;;;;;16.66;100.00;100735.78;5053650;28;20036;-37
2023/07/02 02:18:39;;;;;;;;;;;;;;;16.74;100.00;100734.44;5053633;28;20025;-37
2023/07/02 02:21:05;;;;;;;17.40;10.07;;;;;;;16.60;100.00;100739.59;5053437;28;19912;-37
2023/07/02 02:23:30;;;;;;;;;;;;;;;16.69;100.00;100743.41;5053874;28;20051;-37
2023/07/02 02:25:55;;;;;;;19.58;9.68;;;;;;;16.53;100.00;100730.03;5052761;28;19994;-37
2023/07/02 02:28:21;;;;;;;;;;;;;;;16.66;100.00;100746.69;5053357;28;20044;-37
2023/07/02 02:30:46;;;;;;;17.23;9.75;;;;;;;16.46;100.00;100738.50;5053492;28;19920;-37
2023/07/02 02:33:11;;;;;;;;;;;;;;;16.62;100.00;100752.97;5053165;28;20424;-37
2023/07/02 02:35:36;;;;;;;16.40;9.73;;;;;;;16.47;100.00;100740.13;5052907;28;19913;-37
2023/07/02 02:38:03;;;;;;;;;;;;;;;16.58;100.00;100758.16;5053552;28;20100;-37
2023/07/02 02:40:28;;;;;;;18.67;10.80;;;;;;;16.48;100.00;100755.41;5052760;28;19920;-37
2023/07/02 02:42:53;;;;;;;;;;;;;;;16.57;100.00;100761.16;5053159;28;20036;-37
2023/07/02 02:45:19;;;;;;;14.73;9.13;;;;;;;16.49;100.00;100759.78;5052763;28;19939;-37
2023/07/02 02:47:45;;;;;;;;;;;;;;;16.54;100.00;100767.97;5053886;28;20260;-37
2023/07/02 02:50:12;;;;;;;17.23;10.05;;;;;;;16.40;100.00;100764.16;5052484;28;20360;-37
2023/07/02 02:52:38;;;;;;;20.45;10.45;;;;;;;16.42;100.00;100760.06;5053272;28;20029;-37
2023/07/02 02:55:06;;;;;;;;;;;;;;;16.50;100.00;100766.09;5053093;28;20025;-37
2023/07/02 02:57:31;;;;;;;18.90;10.75;;;;;;;16.42;100.00;100767.44;5052389;28;19958;-37
2023/07/02 02:59:56;;;;;;;;;;;;;;;16.48;100.00;100772.59;5053095;28;20083;-37
2023/07/02 03:02:22;;;;;;;19.17;10.00;;;;;;;16.40;100.00;100769.63;5053290;28;19920;-37
2023/07/02 03:04:49;;;;;;;;;;;;;;;16.46;100.00;100782.19;5052990;28;20267;-37
2023/07/02 03:07:14;;;;;;;17.83;9.97;;;;;;;16.37;100.00;100772.88;5052477;28;20411;-37
2023/07/02 03:09:39;;;;;;;;;;;;;;;16.43;100.00;100777.25;5052657;28;20037;-37
2023/07/02 03:12:05;;;;;;;17.53;9.97;;;;;;;16.24;100.00;100779.69;5052573;28;20360;-37
2023/07/02 03:14:30;;;;;;;;;;;;;;;16.34;100.00;100787.88;5052597;28;20712;-37
2023/07/02 03:16:56;;;;;;;17.53;9.30;;;;;;;16.25;100.00;100788.69;5052510;28;19920;-37
2023/07/02 03:19:21;;;;;;;;;;;;;;;16.29;100.00;100793.31;5052805;28;20382;-37
2023/07/02 03:21:47;;;;;;;15.77;8.60;;;;;;;16.16;100.00;100786.50;5052432;28;19912;-37
2023/07/02 03:24:13;;;;;;;;;;;;;;;16.26;100.00;100796.63;5052726;28;20089;-37
2023/07/02 03:26:39;;;;;;;14.20;8.15;;;;;;;16.13;100.00;100789.75;5052762;28;19923;-37
2023/07/02 03:29:05;;;;;;;14.30;7.93;;;;;;;16.10;99.99;100798.47;5052258;28;20470;-37
2023/07/02 03:31:30;;;;;;;;;;;;;;;16.20;100.00;100806.69;5053551;28;20029;-37
2023/07/02 03:33:56;;;;;;;14.48;7.18;;;;;;;16.05;98.60;100808.53;5052506;28;19913;-37
2023/07/02 03:36:21;;;;;;;;;;;;;;;16.15;100.00;100809.41;5051891;28;20039;-37
2023/07/02 03:38:46;;;;;;;11.60;6.67;;;;;;;16.04;96.66;100809.63;5052062;28;19912;-37
2023/07/02 03:41:12;;;;;;;;;;;;;;;16.14;99.13;100815.13;5053124;28;20258;-37
2023/07/02 03:43:37;;;;;;;12.65;7.30;;;;;;;16.02;97.34;100809.91;5052266;28;20054;-37
2023/07/02 03:46:02;;;;;;;;;;;;;;;16.11;99.56;100816.50;5054292;28;20028;-37
2023/07/02 03:48:28;;;;;;;13.00;6.87;;;;;;;15.96;97.69;100816.44;5056040;28;19928;-37
2023/07/02 03:50:53;;;;;;;;;;;;;;;16.09;98.84;100817.84;5056611;28;20259;-37
2023/07/02 03:53:18;;;;;;;13.83;7.53;;;;;;;15.99;97.42;100825.97;5055687;28;19928;-37
2023/07/02 03:55:43;;;;;;;;;;;;;;;16.06;98.48;100823.84;5056585;28;20251;-37
2023/07/02 03:58:09;;;;;;;12.60;7.17;;;;;;;15.96;96.75;100828.19;5055783;28;20030;-37
2023/07/02 04:00:34;;;;;;;;;;;;;;;16.04;98.52;100824.09;5056736;28;20060;-37
2023/07/02 04:02:59;;;;;;;11.23;6.63;;;;;;;15.89;96.49;100834.94;5055403;28;19920;-37
2023/07/02 04:05:24;;;;;;;;;;;;;;;16.01;97.77;100827.38;5055834;28;20028;-37
2023/07/02 04:07:50;;;;;;;13.53;7.63;;;;;;;15.89;96.65;100832.22;5055585;28;19923;-37
2023/07/02 04:10:15;;;;;;;;;;;;;;;15.97;97.82;100829.00;5055782;28;20318;-37
2023/07/02 04:12:40;;;;;;;11.37;6.77;;;;;;;15.87;95.77;100832.50;5055871;28;19917;-37
2023/07/02 04:15:06;;;;;;;;;;;;;;;15.97;97.49;100829.00;5055866;28;20303;-37
2023/07/02 04:17:31;;;;;;;17.23;7.85;;;;;;;15.79;96.83;100829.44;5055253;28;19912;-37
2023/07/02 04:19:57;;;;;;;;;;;;;;;15.92;97.37;100832.50;5055551;28;20037;-37
2023/07/02 04:22:23;;;;;;;13.70;8.32;;;;;;;15.80;98.87;100825.63;5055377;28;20285;-37
2023/07/02 04:24:48;;;;;;;;;;;;;;;15.89;98.24;100838.50;5055722;28;20418;-37
2023/07/02 04:27:17;;;;;;;15.13;8.27;;;;;;;15.81;99.98;100835.44;5055034;28;20019;-37
2023/07/02 04:29:45;;;;;;;16.38;8.45;;;;;;;15.73;100.00;100833.25;5055231;28;20036;-37
2023/07/02 04:32:10;;;;;;;19.75;9.40;;;;;;;15.76;100.00;100840.88;5055152;28;20052;-37
2023/07/02 04:34:36;;;;;;;;;;;;;;;15.86;99.70;100844.50;5055576;28;20162;-37
2023/07/02 04:37:03;;;;;;;17.58;9.00;;;;;;;15.84;100.00;100848.56;5055102;28;20015;-37
2023/07/02 04:39:29;;;;;;;14.57;8.32;;;;;;;15.86;100.00;100846.38;5054943;28;20035;-37
2023/07/02 04:41:54;;;;;;;;;;;;;;;15.99;99.90;100851.34;5055695;28;20111;-37
2023/07/02 04:44:22;;;;;;;14.17;8.53;;;;;;;15.90;99.00;100850.22;5055124;28;20272;-37
2023/07/02 04:46:48;;;;;;;14.77;8.38;;;;;;;16.03;97.78;100855.19;5054650;28;20287;-37
2023/07/02 04:49:13;;;;;;;;;;;;;;;16.18;98.42;100852.50;5056035;28;20068;-37
2023/07/02 04:51:39;;;;;;;12.45;7.90;;;;;;;16.09;96.03;100854.13;5055338;28;19999;-37
2023/07/02 04:54:04;;;;;;;;;;;;;;;16.19;97.24;100862.31;5055264;28;20039;-37
2023/07/02 04:56:29;;;;;;;13.30;7.30;;;;;;;16.04;95.30;100854.09;5054370;28;19908;-37
2023/07/02 04:58:54;;;;;;;;;;;;;;;16.20;96.66;100865.88;5055163;28;20310;-37
2023/07/02 05:01:20;;;;;;;14.47;7.70;;;;;;;16.10;94.13;100871.28;5054755;28;20067;-37
2023/07/02 05:03:45;;;;;;;;;;;;;;;16.21;95.59;100867.53;5055026;28;20103;-37
2023/07/02 05:06:10;;;;;;;13.38;7.03;;;;;;;16.10;93.29;100872.13;5054757;28;19912;-37
2023/07/02 05:08:36;;;;;;;;;;;;;;;16.22;94.96;100869.16;5054989;28;20112;-37
2023/07/02 05:11:01;;;;;;;14.35;7.78;;;;;;;16.14;93.00;100878.69;5054709;28;19912;-37
2023/07/02 05:13:27;;;;;;;;;;;;;;;16.26;94.51;100881.19;5054609;28;20032;-37
2023/07/02 05:15:52;;;;;;;12.83;7.33;;;;;;;16.12;93.20;100880.06;5054649;28;19920;-37
2023/07/02 05:18:17;;;;;;;;;;;;;;;16.29;94.17;100882.56;5054877;28;20662;-37
2023/07/02 05:20:43;;;;;;;14.67;7.20;;;;;;;16.20;91.05;100883.09;5054527;28;19919;-37
2023/07/02 05:23:08;;;;;;;;;;;;;;;16.33;93.73;100883.66;5054574;28;20275;-37
2023/07/02 05:25:33;;;;;;;13.37;6.67;;;;;;;16.23;90.89;100892.63;5069597;28;19924;-37
2023/07/02 05:27:59;;;;;;;;;;;;;;;16.36;92.15;100886.69;5054533;28;20307;-37
2023/07/02 05:30:24;;;;;;;14.30;7.30;;;;;;;16.33;91.17;100898.13;5054035;28;20285;-37
2023/07/02 05:32:49;;;;;;;;;;;;;;;16.48;92.17;100889.97;5054415;28;20104;-37
2023/07/02 05:35:15;;;;;;;11.10;6.10;;;;;;;16.48;89.33;100897.34;5054001;28;20058;-37
2023/07/02 05:37:40;;;;;;;;;;;;;;;16.64;91.87;100899.03;5054569;28;20293;-37
2023/07/02 05:40:06;;;;;;;14.45;7.10;;;;;;;16.53;89.61;100889.16;5053966;28;20371;-37
2023/07/02 05:42:31;;;;;;;;;;;;;;;16.73;91.43;100902.88;5054226;28;20120;-37
2023/07/02 05:44:56;;;;;;;14.80;7.07;;;;;;;16.63;88.48;100900.09;5053528;28;19956;-37
2023/07/02 05:47:22;;;;;;;;;;;;;;;16.82;89.34;100905.09;5054659;28;20294;-37
2023/07/02 05:49:47;;;;;;;11.80;5.93;;;;;;;16.73;87.35;100910.25;5053720;28;19955;-37
2023/07/02 05:52:12;;;;;;;;;;;;;;;16.85;87.85;100913.56;5053848;28;20279;-37
2023/07/02 05:54:41;;;;;;;12.27;6.67;;;;;;;16.79;86.75;100911.94;5054203;28;19909;-37
2023/07/02 05:57:06;;;;;;;12.80;6.72;;;;;;;16.78;86.17;100913.00;5054014;28;20611;-37
2023/07/02 05:59:31;;;;;;;;;;;;;;;16.91;87.36;100908.94;5054014;28;20052;-37
2023/07/02 06:01:57;;;;;;;11.93;6.07;;;;;;;16.81;86.63;100914.38;5053820;28;19920;-37
2023/07/02 06:04:22;;;;;;;;;;;;;;;16.90;87.54;100926.41;5054024;28;20282;-37
2023/07/02 06:06:47;;;;;;;13.83;6.93;;;;;;;16.75;86.24;100921.75;5053595;28;19913;-37
2023/07/02 06:09:12;;;;;;;;;;;;;;;16.88;87.21;100925.84;5053186;28;20302;-37
2023/07/02 06:11:38;;;;;;;16.07;6.80;;;;;;;16.77;85.00;100924.22;5053245;28;19912;-37
2023/07/02 06:14:03;;;;;;;;;;;;;;;16.94;85.94;100935.72;5053601;28;20278;-37
2023/07/02 06:16:28;;;;;;;11.70;5.80;;;;;;;16.88;83.79;100931.31;5054155;28;20308;-37
2023/07/02 06:18:54;;;;;;;;;;;;;;;16.98;85.31;100934.91;5053965;28;20126;-37
2023/07/02 06:21:19;;;;;;;11.73;5.40;;;;;;;16.94;84.62;100944.72;5053042;28;20356;-37
2023/07/02 06:23:45;;;;;;;;;;;;;;;17.06;85.61;100935.44;5053347;28;20720;-37
2023/07/02 06:26:11;;;;;;;13.90;6.22;;;;;;;17.02;82.92;100937.88;5053948;28;19916;-37
2023/07/02 06:28:36;;;;;;;;;;;;;;;17.16;84.95;100941.72;5053881;28;20441;-37
2023/07/02 06:31:02;;;;;;;13.98;5.93;;;;;;;17.14;82.04;100945.84;5053344;28;19913;-37
2023/07/02 06:33:27;;;;;;;;;;;;;;;17.29;84.00;100942.31;5053508;28;20028;-37
2023/07/02 06:35:52;;;;;;;12.88;6.38;;;;;;;17.21;81.77;100930.00;5052736;28;19958;-37
2023/07/02 06:38:18;;;;;;;;;;;;;;;17.42;84.63;100941.72;5053080;28;20025;-37
2023/07/02 06:40:43;;;;;;;12.75;6.68;;;;;;;17.35;82.53;100952.13;5052888;28;19920;-37
2023/07/02 06:43:08;;;;;;;;;;;;;;;17.49;83.19;100948.56;5053608;28;20393;-37
2023/07/02 06:45:34;;;;;;;13.80;5.55;;;;;;;17.49;81.86;100943.09;5052990;28;19913;-37
2023/07/02 06:47:59;;;;;;;;;;;;;;;17.62;82.59;100947.19;5053830;28;20067;-37
2023/07/02 06:50:24;;;;;;;9.50;5.20;;;;;;;17.53;80.24;100940.66;5052850;28;19909;-37
2023/07/02 06:52:49;;;;;;;;;;;;;;;17.71;81.93;100956.50;5053676;28;20278;-37
2023/07/02 06:55:15;;;;;;;13.07;5.03;;;;;;;17.65;80.55;100957.56;5052510;28;19962;-37
2023/07/02 06:57:47;;;;;;;;;;;;;;;17.80;80.36;100964.16;5053508;28;20620;-37
2023/07/02 07:00:13;;;;;;;10.48;4.93;;;;;;;17.65;76.29;100964.97;5052586;28;19970;-37
2023/07/02 07:02:39;;;;;;;12.30;5.78;;;;;;;17.64;76.37;100969.59;5052986;28;20045;-37
2023/07/02 07:05:04;;;;;;;11.52;5.53;;;;;;;17.63;75.76;100969.91;5052608;28;20496;-37
2023/07/02 07:07:30;;;;;;;;;;;;;;;17.76;78.88;100980.28;5052837;28;20503;-37
2023/07/02 07:09:55;;;;;;;12.00;5.30;;;;;;;17.65;76.59;100981.38;5052586;28;19919;-37
2023/07/02 07:12:20;;;;;;;;;;;;;;;17.79;77.86;100982.47;5053124;28;20270;-37
2023/07/02 07:14:46;;;;;;;11.67;4.97;;;;;;;17.78;76.93;100988.22;5052616;28;19913;-37
2023/07/02 07:17:11;;;;;;;;;;;;;;;17.88;77.15;100989.03;5053027;28;20255;-37
2023/07/02 07:19:36;;;;;;;9.63;4.88;;;;;;;17.82;77.29;100994.78;5052903;28;19959;-37
2023/07/02 07:22:02;;;;;;;;;;;;;;;17.97;78.81;100989.28;5056613;28;20025;-37
2023/07/02 07:24:27;;;;;;;13.63;5.50;;;;;;;17.92;75.36;100994.78;5056525;28;20269;-37
2023/07/02 07:26:52;;;;;;;;;;;;;;;18.05;76.07;100991.44;5056880;28;20341;-37
2023/07/02 07:29:18;;;;;;;11.47;5.03;;;;;;;17.92;73.77;100992.84;5056330;28;19915;-37
2023/07/02 07:31:43;;;;;;;;;;;;;;;18.09;75.37;101005.41;5057265;28;20274;-37
2023/07/02 07:34:09;;;;;;;10.52;4.95;;;;;;;17.98;72.41;101005.44;5055972;28;19908;-37
2023/07/02 07:36:34;;;;;;;10.60;4.97;;;;;;;18.00;74.20;101003.22;5056543;28;20037;-38
2023/07/02 07:38:59;;;;;;;10.20;4.80;;;;;;;18.06;74.37;101000.50;5055886;28;20052;-38
2023/07/02 07:41:26;;;;;;;;;;;;;;;18.20;74.80;101010.59;5057685;28;20035;-38
2023/07/02 07:43:51;;;;;;;10.25;4.50;;;;;;;18.18;74.38;101015.50;5055858;28;20365;-37
2023/07/02 07:46:16;;;;;;;9.93;4.63;;;;;;;18.19;73.22;101016.31;5056420;28;20025;-38
2023/07/02 07:48:42;;;;;;;;;;;;;;;18.32;74.31;101018.47;5056995;28;20357;-38
2023/07/02 07:51:07;;;;;;;9.75;4.68;;;;;;;18.23;73.93;101023.69;5056758;28;20339;-37
2023/07/02 07:53:32;;;;;;;;;;;;;;;18.38;75.39;101031.06;5056159;28;20036;-35
2023/07/02 07:55:58;;;;;;;9.37;4.23;;;;;;;18.32;74.38;101017.66;5055736;28;19916;-37
2023/07/02 07:58:23;;;;;;;;;;;;;;;18.48;72.60;101030.19;5056630;28;20278;-37
2023/07/02 08:00:49;;;;;;;10.07;4.75;;;;;;;18.32;70.32;101026.69;5056498;28;19962;-37
2023/07/02 08:03:14;;;;;;;;;;;;;;;18.44;71.42;101021.72;5056585;28;20033;-37
2023/07/02 08:05:39;;;;;;;8.03;4.13;;;;;;;18.30;68.98;101022.59;5055843;28;19908;-37
2023/07/02 08:08:05;;;;;;;;;;;;;;;18.45;70.12;101028.84;5055871;28;20355;-37
2023/07/02 08:10:30;;;;;;;9.50;4.00;;;;;;;18.42;68.54;101031.31;5055716;28;19978;-37
2023/07/02 08:12:55;;;;;;;8.95;4.38;;;;;;;18.49;71.88;101020.88;5056192;28;20032;-38
2023/07/02 08:15:21;;;;;;;;;;;;;;;18.72;71.59;101030.41;5056060;28;20067;-37
2023/07/02 08:17:46;;;;;;;8.70;4.35;;;;;;;18.68;68.89;101024.66;5056047;28;20300;-37
2023/07/02 08:20:12;;;;;;;;;;;;;;;18.86;70.74;101030.63;5056547;28;20139;-37
2023/07/02 08:22:37;;;;;;;10.32;4.70;;;;;;;18.70;66.18;101032.63;5055882;28;19970;-37
2023/07/02 08:25:03;;;;;;;;;;;;;;;18.86;67.66;101047.88;5055908;28;20338;-36
2023/07/02 08:27:28;;;;;;;9.18;4.95;;;;;;;18.64;64.88;101039.16;5055129;28;19955;-36
2023/07/02 08:29:54;;;;;;;7.95;3.83;;;;;;;18.71;64.17;101045.22;5055538;28;20462;-36
2023/07/02 08:32:19;;;;;;;;;;;;;;;18.91;65.46;101049.78;5055595;28;20124;-36
2023/07/02 08:34:44;;;;;;;7.63;3.90;;;;;;;18.81;63.38;101055.31;5055155;28;19912;-36
2023/07/02 08:37:10;;;;;;;10.48;4.90;;;;;;;18.78;62.78;101054.75;5054905;28;20389;-36
2023/07/02 08:39:37;;;;;;;9.98;4.85;;;;;;;18.72;63.27;101055.88;5055575;28;20112;-36
2023/07/02 08:42:03;;;;;;;8.32;4.03;;;;;;;18.76;62.65;101059.69;5054806;28;20040;-36
2023/07/02 08:44:28;;;;;;;;;;;;;;;18.86;62.29;101066.25;5055729;28;20025;-36
2023/07/02 08:46:56;;;;;;;8.52;3.90;;;;;;;18.63;61.96;101049.31;5055230;28;19982;-36
2023/07/02 08:49:21;;;;;;;10.13;4.18;;;;;;;18.65;62.10;101062.75;5054921;28;20051;-36
2023/07/02 08:51:47;;;;;;;8.30;4.13;;;;;;;18.87;63.48;101056.91;5054885;28;20025;-36
2023/07/02 08:54:13;;;;;;;9.95;4.15;;;;;;;18.94;61.84;101060.19;5054570;28;20112;-36
2023/07/02 08:56:39;;;;;;;8.80;4.18;;;;;;;18.89;62.21;101052.00;5054737;28;20040;-36
2023/07/02 08:59:07;;;;;;;;;;;;;;;19.10;62.99;101060.91;5054749;28;20052;-36
2023/07/02 09:01:44;;;;;;;8.70;4.43;;;;;;;19.15;59.56;101052.66;5054746;28;19913;-36
2023/07/02 09:04:15;;;;;;;11.57;4.00;;;;;;;19.45;60.36;101043.41;5054393;28;20029;-36
2023/07/02 09:06:40;;;;;;;8.80;3.85;;;;;;;19.61;59.68;101052.38;5054621;28;20553;-36
2023/07/02 09:09:06;;;;;;;;;;;;;;;19.70;61.31;101056.97;5054742;28;20037;-36
2023/07/02 09:11:31;;;;;;;12.48;3.90;;;;;;;19.32;57.90;101047.59;5054321;28;20327;-36
2023/07/02 09:14:00;;;;;;;10.00;4.60;;;;;;;19.13;59.49;101057.59;5054357;28;20162;-36
2023/07/02 09:16:29;;;;;;;8.02;3.92;;;;;;;19.04;60.36;101057.38;5054969;28;20131;-36
2023/07/02 09:19:02;;;;;;;7.03;3.95;;;;;;;19.13;60.83;101043.88;5054198;28;20064;-36
2023/07/02 09:21:48;;;;;;;8.57;4.22;;;;;;;19.22;61.82;101059.44;5054269;28;20047;-36
2023/07/02 09:24:23;;;;;;;6.93;3.67;;;;;;;19.11;61.58;101051.59;5054585;28;20021;-36
2023/07/02 09:26:53;;;;;;;8.85;4.18;;;;;;;19.10;63.01;101056.25;5054233;28;20051;-36
2023/07/02 09:29:33;;;;;;;7.40;3.83;;;;;;;19.27;62.18;101053.13;5054392;28;20033;-36
2023/07/02 09:32:00;;;;;;;8.30;3.90;;;;;;;19.53;62.12;101040.06;5054085;28;20094;-36
2023/07/02 09:34:31;;;;;;;7.65;3.95;;;;;;;19.87;60.81;101055.75;5053813;28;20147;-36
2023/07/02 09:36:58;;;;;;;8.73;4.38;;;;;;;19.95;62.28;101044.13;5054134;28;20116;-36
2023/07/02 09:39:29;;;;;;;8.52;3.97;;;;;;;19.96;60.05;101045.75;5053965;28;20028;-36
2023/07/02 09:42:00;;;;;;;8.73;4.45;;;;;;;20.18;59.78;101039.78;5054274;28;20020;-36
2023/07/02 09:44:33;;;;;;;7.43;3.90;;;;;;;20.42;59.95;101034.31;5053123;28;20027;-36
2023/07/02 09:47:03;;;;;;;10.30;4.30;;;;;;;20.50;57.31;101036.44;5054262;28;20032;-36
2023/07/02 09:49:39;;;;;;;9.02;4.10;;;;;;;20.50;58.89;101045.50;5053884;28;20029;-36
2023/07/02 09:52:07;;;;;;;9.60;4.68;;;;;;;20.53;57.92;101057.81;5054434;28;20111;-36
2023/07/02 09:54:32;;;;;;;7.85;4.38;;;;;;;20.40;58.52;101051.09;5053676;28;20035;-36
2023/07/02 09:56:58;;;;;;;10.52;4.40;;;;;;;20.14;57.93;101056.00;5053869;28;20036;-36
2023/07/02 09:59:24;;;;;;;7.10;3.90;;;;;;;20.01;59.31;101062.19;5054041;28;20053;-36
2023/07/02 10:01:50;;;;;;;9.55;4.32;;;;;;;19.96;60.94;101060.31;5053600;28;20052;-36
2023/07/02 10:04:19;;;;;;;10.15;4.43;;;;;;;19.88;59.77;101066.41;5053772;28;20353;-36
2023/07/02 10:06:50;;;;;;;10.65;4.50;;;;;;;20.01;60.57;101071.25;5053513;28;20082;-36
2023/07/02 10:09:19;;;;;;;8.35;4.55;;;;;;;20.28;59.56;101070.69;5053633;28;20112;-36
2023/07/02 10:11:45;;;;;;;7.28;4.45;;;;;;;20.37;58.19;101053.59;5053868;28;20359;-36
2023/07/02 10:14:11;;;;;;;7.70;4.45;;;;;;;20.47;58.43;101070.00;5053670;28;20028;-36
2023/07/02 10:16:50;;;;;;;10.05;4.85;;;;;;;20.37;59.04;101072.81;5052693;28;20020;-37
2023/07/02 10:19:16;;;;;;;9.25;4.80;;;;;;;20.05;58.24;101069.53;5052824;28;20032;-37
2023/07/02 10:21:41;;;;;;;9.75;4.38;;;;;;;19.85;57.75;101079.88;5053492;28;20025;-37
2023/07/02 10:24:14;;;;;;;9.27;4.55;;;;;;;19.61;58.36;101080.63;5052741;28;20393;-37
2023/07/02 10:26:57;;;;;;;7.85;4.78;;;;;;;19.56;59.25;101091.59;5053592;28;20115;-37
2023/07/02 10:29:27;;;;;;;9.00;4.90;;;;;;;19.27;58.77;101078.63;5053763;28;20036;-37
2023/07/02 10:31:54;;;;;;;11.55;5.88;;;;;;;19.40;60.04;101084.59;5053228;28;20028;-37
2023/07/02 10:34:33;;;;;;;12.38;5.60;;;;;;;19.49;58.92;101093.84;5052743;28;20067;-37
2023/07/02 10:37:01;;;;;;;10.27;5.07;;;;;;;19.50;59.96;101081.78;5053701;28;20079;-37
2023/07/02 10:39:26;;;;;;;9.95;4.85;;;;;;;19.67;61.41;101075.94;5053241;28;20373;-37
2023/07/02 10:41:52;;;;;;;9.20;4.47;;;;;;;19.90;59.61;101088.06;5053429;28;20026;-37
2023/07/02 10:44:17;;;;;;;9.60;5.05;;;;;;;19.89;58.07;101089.19;5052867;28;20033;-37
2023/07/02 10:46:47;;;;;;;8.88;4.60;;;;;;;19.73;58.82;101080.28;5053102;28;20032;-37
2023/07/02 10:49:13;;;;;;;8.75;4.57;;;;;;;19.79;59.37;101079.94;5052574;28;20056;-37
2023/07/02 10:51:38;;;;;;;10.52;5.45;;;;;;;20.26;60.37;101094.88;5053097;28;20369;-37
2023/07/02 10:54:05;;;;;;;9.15;4.95;;;;;;;20.43;58.37;101090.88;5052544;28;20025;-37
2023/07/02 10:56:31;;;;;;;10.88;4.70;;;;;;;20.74;58.54;101083.13;5052751;28;20122;-37
2023/07/02 10:58:56;;;;;;;8.98;5.15;;;;;;;20.60;57.27;101096.78;5052658;28;20033;-37
2023/07/02 11:01:26;;;;;;;10.18;5.28;;;;;;;20.49;58.15;101087.78;5053107;28;20454;-37
2023/07/02 11:04:03;;;;;;;9.23;5.07;;;;;;;20.33;58.62;101095.34;5052331;28;20039;-37
2023/07/02 11:06:30;;;;;;;9.48;4.95;;;;;;;20.20;58.83;101097.97;5052848;28;20017;-37
2023/07/02 11:08:56;;;;;;;11.40;5.10;;;;;;;20.25;60.83;101093.25;5052563;28;20040;-37
2023/07/02 11:11:23;;;;;;;9.50;4.90;;;;;;;20.19;58.76;101101.81;5053017;28;20377;-37
2023/07/02 11:13:49;;;;;;;10.90;5.00;;;;;;;20.19;59.77;101101.81;5053508;28;20040;-37
2023/07/02 11:16:18;;;;;;;10.70;5.43;;;;;;;20.06;60.16;101092.34;5052513;28;20033;-37
2023/07/02 11:18:43;;;;;;;10.65;4.75;;;;;;;20.22;59.68;101102.06;5052151;28;20025;-37
2023/07/02 11:21:11;;;;;;;10.32;4.53;;;;;;;20.10;59.13;101087.88;5052599;28;20040;-37
2023/07/02 11:23:37;;;;;;;9.32;5.38;;;;;;;20.60;59.83;101091.28;5052410;28;20079;-37
2023/07/02 11:26:03;;;;;;;10.52;5.05;;;;;;;20.72;56.43;101083.41;5052694;28;20454;-37
2023/07/02 11:28:30;;;;;;;9.25;4.72;;;;;;;21.07;55.96;101090.41;5052358;28;20044;-37
2023/07/02 11:30:57;;;;;;;7.82;4.80;;;;;;;21.39;58.69;101088.09;5052911;28;20151;-37
2023/07/02 11:33:34;;;;;;;11.98;5.55;;;;;;;21.76;59.09;101088.03;5052100;28;20473;-37
2023/07/02 11:36:00;;;;;;;8.95;5.05;;;;;;;21.92;57.42;101085.06;5052370;28;20028;-37